Time;durP1;ratioP1;P1;durP2;ratioP2;P2;SDS_P1;SDS_P2;PMS_P1;PMS_P2;Temp;Humidity;BMP_temperature;BMP_pressure;BME280_temperature;BME280_humidity;BME280_pressure;Samples;Min_cycle;Max_cycle;Signal;HPM_P1;HPM_P2
2021/12/04 00:01:41;;;;;;;7.28;3.45;;;;;;;;;;5043787;28;20496;-67
2021/12/04 00:04:08;;;;;;;5.97;3.05;;;;;;;;;;5041983;28;20268;-66
2021/12/04 00:06:38;;;;;;;5.38;3.30;;;;;;;;;;5041566;28;20222;-66
2021/12/04 00:09:05;;;;;;;4.13;3.08;;;;;;;;;;5045578;28;20584;-70
2021/12/04 00:11:37;;;;;;;7.68;3.25;;;;;;;;;;5041484;28;20221;-68
2021/12/04 00:14:04;;;;;;;9.73;3.85;;;;;;;;;;5049266;28;20187;-67
2021/12/04 00:16:31;;;;;;;7.45;3.53;;;;;;;;;;5043503;28;20193;-69
2021/12/04 00:18:57;;;;;;;6.70;2.88;;;;;;;;;;5051901;28;20292;-68
2021/12/04 00:21:24;;;;;;;7.05;3.55;;;;;;;;;;5044844;28;20548;-70
2021/12/04 00:23:50;;;;;;;10.18;3.95;;;;;;;;;;5049128;28;20225;-68
2021/12/04 00:26:18;;;;;;;7.28;3.63;;;;;;;;;;5043675;28;20605;-68
2021/12/04 00:28:44;;;;;;;9.88;3.95;;;;;;;;;;5052017;28;20195;-68
2021/12/04 00:31:12;;;;;;;6.97;3.33;;;;;;;;;;5051215;28;20207;-68
2021/12/04 00:33:42;;;;;;;6.57;3.42;;;;;;;;;;5050399;28;20183;-68
2021/12/04 00:36:20;;;;;;;9.88;3.47;;;;;;;;;;5053887;28;20270;-66
2021/12/04 00:49:47;;;;;;;5.65;4.38;;;;;;;;;;5048660;28;20194;-69
2021/12/04 00:52:14;;;;;;;4.75;3.55;;;;;;;;;;5046377;28;20190;-70
2021/12/04 00:54:42;;;;;;;4.55;3.75;;;;;;;;;;5049629;28;20265;-71
2021/12/04 00:57:10;;;;;;;5.32;3.80;;;;;;;;;;5046178;28;20210;-67
2021/12/04 00:59:36;;;;;;;7.00;4.45;;;;;;;;;;5046206;28;20201;-67
2021/12/04 01:02:04;;;;;;;7.45;5.18;;;;;;;;;;5046629;28;20558;-68
2021/12/04 01:04:30;;;;;;;5.18;4.68;;;;;;;;;;5048255;28;20268;-69
2021/12/04 01:06:58;;;;;;;5.53;4.97;;;;;;;;;;5049677;28;20191;-68
2021/12/04 01:09:25;;;;;;;6.10;5.35;;;;;;;;;;5049096;28;20262;-68
2021/12/04 01:11:52;;;;;;;6.93;5.25;;;;;;;;;;5048415;28;20317;-67
2021/12/04 01:14:20;;;;;;;7.28;5.18;;;;;;;;;;5051659;28;20206;-68
2021/12/04 01:16:48;;;;;;;8.65;6.15;;;;;;;;;;5049333;28;20194;-68
2021/12/04 01:19:15;;;;;;;6.82;6.07;;;;;;;;;;5047097;28;20309;-67
2021/12/04 01:21:44;;;;;;;9.80;7.15;;;;;;;;;;5048710;28;20187;-69
2021/12/04 01:24:11;;;;;;;7.07;6.35;;;;;;;;;;5047737;28;20246;-68
2021/12/04 01:26:38;;;;;;;7.95;6.97;;;;;;;;;;5047730;28;20208;-67
2021/12/04 01:29:04;;;;;;;8.18;7.32;;;;;;;;;;5042614;28;20190;-67
2021/12/04 01:31:30;;;;;;;6.93;6.25;;;;;;;;;;5044946;28;20218;-68
2021/12/04 01:33:57;;;;;;;10.00;6.75;;;;;;;;;;5047668;28;20531;-67
2021/12/04 01:36:24;;;;;;;11.63;6.78;;;;;;;;;;5049608;28;20195;-66
2021/12/04 01:38:51;;;;;;;10.82;6.65;;;;;;;;;;5046902;28;20183;-68
2021/12/04 01:41:17;;;;;;;8.27;6.38;;;;;;;;;;5047676;28;20249;-71
2021/12/04 01:43:44;;;;;;;8.45;6.50;;;;;;;;;;5038595;28;20203;-68
2021/12/04 01:46:10;;;;;;;7.22;5.82;;;;;;;;;;5047961;28;20186;-66
2021/12/04 01:48:37;;;;;;;8.55;7.15;;;;;;;;;;5042560;28;20193;-68
2021/12/04 01:51:04;;;;;;;9.18;8.18;;;;;;;;;;5047090;28;20609;-70
2021/12/04 01:53:30;;;;;;;7.65;6.85;;;;;;;;;;5049828;28;20635;-66
2021/12/04 01:55:59;;;;;;;9.02;6.60;;;;;;;;;;5039627;28;20201;-66
2021/12/04 01:58:26;;;;;;;7.20;5.90;;;;;;;;;;5045116;28;20208;-67
2021/12/04 02:00:53;;;;;;;10.98;7.13;;;;;;;;;;5041903;28;20636;-67
2021/12/04 02:03:20;;;;;;;12.55;7.18;;;;;;;;;;5042336;28;20224;-68
2021/12/04 02:05:47;;;;;;;9.13;6.35;;;;;;;;;;5046453;28;20189;-67
2021/12/04 02:08:15;;;;;;;9.23;7.22;;;;;;;;;;5043629;28;20187;-69
2021/12/04 02:10:42;;;;;;;7.88;7.05;;;;;;;;;;5047421;28;20565;-71
2021/12/04 02:13:08;;;;;;;8.60;6.43;;;;;;;;;;5046347;28;20582;-67
2021/12/04 02:15:36;;;;;;;8.82;7.20;;;;;;;;;;5047278;28;20182;-67
2021/12/04 02:18:04;;;;;;;12.45;7.68;;;;;;;;;;5046670;28;20273;-68
2021/12/04 02:20:33;;;;;;;8.40;7.53;;;;;;;;;;5046232;28;20646;-67
2021/12/04 02:23:01;;;;;;;11.05;7.38;;;;;;;;;;5040203;28;20309;-68
2021/12/04 02:25:28;;;;;;;9.68;6.75;;;;;;;;;;5036614;28;20237;-70
2021/12/04 02:27:56;;;;;;;8.88;7.97;;;;;;;;;;5044627;28;20658;-70
2021/12/04 02:30:24;;;;;;;9.07;7.72;;;;;;;;;;5041617;28;20220;-70
2021/12/04 02:32:51;;;;;;;10.13;7.50;;;;;;;;;;5046816;28;20869;-68
2021/12/04 02:35:18;;;;;;;9.27;7.65;;;;;;;;;;5047212;28;20182;-68
2021/12/04 02:37:46;;;;;;;10.00;7.85;;;;;;;;;;5046965;28;20186;-70
2021/12/04 02:40:18;;;;;;;13.07;8.23;;;;;;;;;;5039645;28;20316;-67
2021/12/04 02:42:45;;;;;;;11.05;7.75;;;;;;;;;;5042540;28;20213;-68
2021/12/04 02:45:12;;;;;;;10.30;8.65;;;;;;;;;;5032945;28;20206;-67
2021/12/04 02:47:40;;;;;;;9.20;8.23;;;;;;;;;;5035788;28;20278;-67
2021/12/04 02:50:08;;;;;;;8.85;7.88;;;;;;;;;;5041101;28;21218;-68
2021/12/04 02:52:35;;;;;;;10.45;8.30;;;;;;;;;;5048236;28;20190;-68
2021/12/04 02:55:02;;;;;;;9.27;7.55;;;;;;;;;;5041970;28;20553;-70
2021/12/04 02:57:30;;;;;;;10.18;8.73;;;;;;;;;;5045696;28;20186;-68
2021/12/04 02:59:57;;;;;;;8.50;7.65;;;;;;;;;;5047086;28;20289;-68
2021/12/04 03:02:24;;;;;;;9.23;7.97;;;;;;;;;;5046410;28;20187;-69
2021/12/04 03:04:53;;;;;;;11.70;8.48;;;;;;;;;;5047970;28;20211;-68
2021/12/04 03:07:21;;;;;;;14.07;8.63;;;;;;;;;;5045428;28;20237;-70
2021/12/04 03:09:47;;;;;;;11.10;8.68;;;;;;;;;;5045935;28;20514;-69
2021/12/04 03:12:15;;;;;;;12.63;8.68;;;;;;;;;;5047218;28;20221;-69
2021/12/04 03:14:42;;;;;;;9.00;8.10;;;;;;;;;;5046426;28;20244;-68
2021/12/04 03:17:10;;;;;;;10.77;8.23;;;;;;;;;;5046625;28;20183;-69
2021/12/04 03:19:38;;;;;;;13.38;9.35;;;;;;;;;;5047576;28;20206;-69
2021/12/04 03:22:07;;;;;;;9.02;7.47;;;;;;;;;;5046990;28;20556;-68
2021/12/04 03:24:37;;;;;;;11.25;9.40;;;;;;;;;;5045215;28;20623;-69
2021/12/04 03:27:04;;;;;;;10.70;8.50;;;;;;;;;;5045033;28;20190;-70
2021/12/04 03:29:32;;;;;;;12.32;9.48;;;;;;;;;;5047765;28;20179;-71
2021/12/04 03:40:08;;;;;;;13.10;9.52;;;;;;;;;;5046740;28;20209;-69
2021/12/04 03:42:36;;;;;;;13.57;9.07;;;;;;;;;;5043441;28;20214;-67
2021/12/04 03:45:04;;;;;;;10.40;9.27;;;;;;;;;;5037804;28;20550;-67
2021/12/04 03:47:32;;;;;;;12.02;9.73;;;;;;;;;;5049231;28;20727;-67
2021/12/04 03:49:58;;;;;;;11.20;9.48;;;;;;;;;;5044441;28;20178;-67
2021/12/04 03:52:25;;;;;;;12.85;10.30;;;;;;;;;;5046743;28;20279;-67
2021/12/04 03:54:52;;;;;;;11.68;10.13;;;;;;;;;;5046699;28;20696;-67
2021/12/04 03:57:19;;;;;;;11.57;10.38;;;;;;;;;;5047704;28;20329;-67
2021/12/04 03:59:46;;;;;;;11.40;9.45;;;;;;;;;;5042235;28;20190;-68
2021/12/04 04:02:14;;;;;;;11.30;10.15;;;;;;;;;;5048742;28;20202;-69
2021/12/04 04:04:41;;;;;;;11.75;10.55;;;;;;;;;;5036703;28;20187;-67
2021/12/04 04:07:08;;;;;;;11.88;10.68;;;;;;;;;;5048145;28;20202;-66
2021/12/04 04:09:35;;;;;;;11.68;10.20;;;;;;;;;;5051212;28;20257;-68
2021/12/04 04:12:03;;;;;;;12.88;10.10;;;;;;;;;;5048283;28;20484;-67
2021/12/04 04:14:31;;;;;;;12.35;11.05;;;;;;;;;;5049314;28;20596;-67
2021/12/04 04:16:57;;;;;;;15.32;11.48;;;;;;;;;;5047090;28;21062;-67
2021/12/04 04:19:25;;;;;;;11.88;10.43;;;;;;;;;;5049149;28;20206;-68
2021/12/04 04:22:01;;;;;;;13.43;9.98;;;;;;;;;;5048512;28;20615;-67
2021/12/04 04:24:29;;;;;;;14.77;12.70;;;;;;;;;;5048356;28;20551;-67
2021/12/04 04:26:56;;;;;;;18.10;12.07;;;;;;;;;;5047428;28;20183;-69
2021/12/04 04:29:24;;;;;;;14.63;12.32;;;;;;;;;;5045113;28;20187;-67
2021/12/04 04:31:52;;;;;;;13.45;11.32;;;;;;;;;;5050084;28;20286;-68
2021/12/04 04:34:26;;;;;;;16.08;11.65;;;;;;;;;;5048716;28;20191;-68
2021/12/04 05:14:43;;;;;;;15.75;11.50;;;;;;;;;;5049175;28;20634;-67
2021/12/04 05:17:29;;;;;;;13.00;11.52;;;;;;;;;;5042219;28;20190;-67
2021/12/04 05:19:56;;;;;;;16.52;11.27;;;;;;;;;;5038710;28;20666;-67
2021/12/04 05:22:23;;;;;;;17.10;11.68;;;;;;;;;;5051173;28;20206;-67
2021/12/04 05:24:50;;;;;;;15.48;12.90;;;;;;;;;;5066616;28;20183;-66
2021/12/04 05:27:17;;;;;;;14.75;12.80;;;;;;;;;;5050488;28;20638;-67
2021/12/04 05:29:44;;;;;;;18.10;13.57;;;;;;;;;;5066077;28;20186;-68
2021/12/04 05:32:11;;;;;;;15.20;13.15;;;;;;;;;;5031476;28;20632;-67
2021/12/04 05:34:37;;;;;;;15.85;13.90;;;;;;;;;;5050464;28;20517;-69
2021/12/04 05:37:05;;;;;;;18.42;13.07;;;;;;;;;;5041898;28;20241;-67
2021/12/04 05:39:31;;;;;;;16.15;13.68;;;;;;;;;;5046113;28;20285;-67
2021/12/04 05:41:59;;;;;;;18.92;14.25;;;;;;;;;;5047469;28;20251;-67
2021/12/04 05:44:26;;;;;;;17.02;13.00;;;;;;;;;;5036618;28;20187;-67
2021/12/04 05:46:58;;;;;;;16.38;13.65;;;;;;;;;;5047091;28;20269;-67
2021/12/04 05:49:38;;;;;;;17.30;13.27;;;;;;;;;;5036087;28;20325;-67
2021/12/04 05:57:07;;;;;;;18.25;13.88;;;;;;;;;;5049886;28;20281;-66
2021/12/04 05:59:34;;;;;;;15.80;13.23;;;;;;;;;;5051025;28;20189;-68
2021/12/04 06:02:01;;;;;;;17.27;13.88;;;;;;;;;;5041047;28;20202;-67
2021/12/04 06:04:27;;;;;;;17.52;13.90;;;;;;;;;;5049581;28;20202;-67
2021/12/04 06:06:54;;;;;;;19.13;14.05;;;;;;;;;;5046715;28;20796;-68
2021/12/04 06:09:21;;;;;;;19.08;14.77;;;;;;;;;;5050033;28;20193;-68
2021/12/04 06:11:47;;;;;;;17.45;13.73;;;;;;;;;;5042703;28;20223;-67
2021/12/04 06:14:14;;;;;;;15.95;13.98;;;;;;;;;;5044056;28;20246;-68
2021/12/04 06:16:40;;;;;;;19.55;14.15;;;;;;;;;;5048621;28;20210;-67
2021/12/04 06:24:38;;;;;;;19.45;15.40;;;;;;;;;;5049931;28;20193;-68
2021/12/04 06:27:05;;;;;;;19.13;14.80;;;;;;;;;;5049076;28;20243;-68
2021/12/04 06:29:31;;;;;;;17.17;14.10;;;;;;;;;;5049664;28;20736;-68
2021/12/04 06:31:58;;;;;;;18.33;13.90;;;;;;;;;;5045322;28;20210;-68
2021/12/04 06:34:24;;;;;;;17.65;14.25;;;;;;;;;;5042440;28;20635;-68
2021/12/04 06:36:50;;;;;;;18.30;13.43;;;;;;;;;;5045898;28;20638;-68
2021/12/04 06:39:17;;;;;;;18.23;14.85;;;;;;;;;;5049719;28;20185;-68
2021/12/04 06:41:43;;;;;;;19.23;13.95;;;;;;;;;;5049968;28;20183;-69
2021/12/04 06:44:10;;;;;;;18.25;13.85;;;;;;;;;;5041243;28;20244;-66
2021/12/04 06:46:36;;;;;;;15.10;12.48;;;;;;;;;;5043829;28;20535;-66
2021/12/04 06:49:15;;;;;;;16.77;13.52;;;;;;;;;;5046709;28;20202;-68
2021/12/04 06:51:46;;;;;;;16.48;12.48;;;;;;;;;;5043357;28;20238;-69
2021/12/04 06:54:19;;;;;;;21.30;14.75;;;;;;;;;;5035381;28;20190;-69
2021/12/04 06:56:46;;;;;;;19.40;13.85;;;;;;;;;;5049328;28;20242;-69
2021/12/04 06:59:18;;;;;;;15.98;13.48;;;;;;;;;;5048979;28;20619;-68
2021/12/04 07:01:44;;;;;;;20.00;13.77;;;;;;;;;;5049495;28;20602;-68
2021/12/04 07:04:11;;;;;;;20.13;13.32;;;;;;;;;;5048873;28;20182;-68
2021/12/04 07:06:38;;;;;;;15.70;13.95;;;;;;;;;;5049445;28;20189;-68
2021/12/04 07:09:05;;;;;;;15.75;12.35;;;;;;;;;;5041699;28;20654;-69
2021/12/04 07:11:31;;;;;;;13.27;11.93;;;;;;;;;;5049170;28;20209;-68
2021/12/04 07:13:59;;;;;;;13.93;12.48;;;;;;;;;;5039061;28;20194;-68
2021/12/04 07:16:25;;;;;;;16.58;12.50;;;;;;;;;;5046732;28;20196;-68
2021/12/04 07:18:52;;;;;;;12.25;10.95;;;;;;;;;;5034532;28;20195;-68
2021/12/04 07:21:18;;;;;;;14.27;10.43;;;;;;;;;;5044018;28;20265;-67
2021/12/04 07:23:45;;;;;;;13.32;11.50;;;;;;;;;;5034929;28;20289;-68
2021/12/04 07:26:12;;;;;;;17.15;11.13;;;;;;;;;;5036741;28;20203;-68
2021/12/04 07:28:38;;;;;;;12.48;11.13;;;;;;;;;;5055323;28;20666;-66
2021/12/04 07:31:05;;;;;;;12.75;11.45;;;;;;;;;;5038735;28;20246;-68
2021/12/04 07:33:32;;;;;;;12.85;10.77;;;;;;;;;;5039707;28;20642;-68
2021/12/04 07:35:59;;;;;;;12.75;10.90;;;;;;;;;;5040334;28;20195;-67
2021/12/04 07:38:25;;;;;;;13.30;10.50;;;;;;;;;;5067164;28;20198;-68
2021/12/04 07:40:52;;;;;;;12.07;10.90;;;;;;;;;;5049541;28;20833;-67
2021/12/04 07:43:18;;;;;;;13.73;10.75;;;;;;;;;;5041546;28;20223;-68
2021/12/04 07:45:45;;;;;;;11.90;9.85;;;;;;;;;;5041512;28;20178;-70
2021/12/04 07:48:12;;;;;;;11.60;10.40;;;;;;;;;;5040810;28;20198;-68
2021/12/04 07:50:38;;;;;;;12.70;11.15;;;;;;;;;;5048412;28;20581;-68
2021/12/04 07:53:05;;;;;;;12.32;11.02;;;;;;;;;;5040470;28;20236;-69
2021/12/04 07:55:32;;;;;;;12.35;10.23;;;;;;;;;;5038051;28;20175;-68
2021/12/04 07:57:59;;;;;;;12.38;11.07;;;;;;;;;;5048394;28;20193;-68
2021/12/04 08:00:28;;;;;;;14.85;10.30;;;;;;;;;;5049024;28;20199;-67
2021/12/04 08:02:54;;;;;;;11.07;9.82;;;;;;;;;;5048787;28;20189;-68
2021/12/04 08:05:21;;;;;;;14.57;11.82;;;;;;;;;;5048756;28;20187;-68
2021/12/04 08:07:47;;;;;;;14.27;11.48;;;;;;;;;;5047718;28;20187;-68
2021/12/04 08:10:17;;;;;;;13.63;11.45;;;;;;;;;;5044396;28;20189;-69
2021/12/04 08:12:45;;;;;;;11.68;10.57;;;;;;;;;;5047746;28;20186;-68
2021/12/04 08:15:12;;;;;;;19.27;11.52;;;;;;;;;;5042569;28;20186;-69
2021/12/04 08:17:39;;;;;;;13.95;10.00;;;;;;;;;;5043488;28;20191;-69
2021/12/04 08:20:06;;;;;;;12.52;11.27;;;;;;;;;;5041173;28;20257;-67
2021/12/04 08:22:36;;;;;;;14.32;10.90;;;;;;;;;;5040543;28;20361;-68
2021/12/04 08:25:03;;;;;;;11.90;10.65;;;;;;;;;;5047218;28;20647;-69
2021/12/04 08:27:29;;;;;;;15.65;9.68;;;;;;;;;;5043547;28;20665;-68
2021/12/04 08:29:56;;;;;;;13.75;10.65;;;;;;;;;;5051856;28;20282;-69
2021/12/04 08:32:23;;;;;;;12.45;10.80;;;;;;;;;;5041401;28;20314;-67
2021/12/04 08:34:51;;;;;;;21.65;10.50;;;;;;;;;;5044956;28;20179;-70
2021/12/04 08:37:20;;;;;;;11.85;10.65;;;;;;;;;;5048901;28;20241;-68
2021/12/04 08:39:48;;;;;;;13.82;10.65;;;;;;;;;;5039279;28;20183;-67
2021/12/04 08:42:15;;;;;;;13.18;10.98;;;;;;;;;;5049160;28;20183;-69
2021/12/04 08:44:43;;;;;;;12.63;10.77;;;;;;;;;;5046057;28;20231;-68
2021/12/04 08:47:10;;;;;;;12.20;10.98;;;;;;;;;;5045528;28;20350;-67
2021/12/04 08:49:36;;;;;;;15.60;10.38;;;;;;;;;;5053321;28;20191;-68
2021/12/04 08:52:04;;;;;;;12.65;11.07;;;;;;;;;;5054651;28;20214;-67
2021/12/04 08:54:35;;;;;;;13.18;10.80;;;;;;;;;;5048740;28;20214;-67
2021/12/04 08:57:02;;;;;;;15.05;11.48;;;;;;;;;;5051264;28;20190;-68
2021/12/04 08:59:29;;;;;;;15.48;11.95;;;;;;;;;;5051783;28;20222;-68
2021/12/04 09:01:55;;;;;;;14.63;10.95;;;;;;;;;;5048048;28;20183;-67
2021/12/04 09:04:25;;;;;;;13.07;10.60;;;;;;;;;;5049906;28;20198;-67
